Time;durP1;ratioP1;P1;durP2;ratioP2;P2;SDS_P1;SDS_P2;PMS_P1;PMS_P2;Temp;Humidity;BMP_temperature;BMP_pressure;BME280_temperature;BME280_humidity;BME280_pressure;Samples;Min_cycle;Max_cycle;Signal;HPM_P1;HPM_P2
2022/01/07 00:01:06;;;;;;;17.97;9.23;;;-1.10;99.90;;;;;;5032122;28;20291;-74
2022/01/07 00:03:32;;;;;;;28.73;9.40;;;-1.20;99.90;;;;;;5030002;28;20212;-74
2022/01/07 00:05:59;;;;;;;12.67;8.23;;;-1.20;99.90;;;;;;5021016;28;20185;-73
2022/01/07 00:08:25;;;;;;;9.03;8.13;;;-1.30;99.90;;;;;;5028674;28;20208;-73
2022/01/07 00:10:51;;;;;;;11.43;8.67;;;-1.30;99.90;;;;;;5028287;28;20230;-73
2022/01/07 00:13:17;;;;;;;25.97;9.10;;;-1.20;99.90;;;;;;5021532;28;20184;-73
2022/01/07 00:15:42;;;;;;;12.60;8.60;;;-1.20;99.90;;;;;;5028204;28;20181;-74
2022/01/07 00:18:08;;;;;;;13.37;8.90;;;-1.20;99.90;;;;;;5024995;28;20243;-74
2022/01/07 00:20:35;;;;;;;9.77;8.77;;;-1.20;99.90;;;;;;5029430;28;20231;-74
2022/01/07 00:23:01;;;;;;;17.53;9.00;;;-1.20;99.90;;;;;;5026241;28;20593;-74
2022/01/07 00:25:26;;;;;;;24.73;9.30;;;-1.20;99.90;;;;;;5030727;28;20180;-74
2022/01/07 00:27:52;;;;;;;28.87;10.40;;;-1.20;99.90;;;;;;5027116;28;20547;-74
2022/01/07 00:30:20;;;;;;;18.00;9.80;;;-1.30;99.90;;;;;;5018608;28;20611;-74
2022/01/07 00:32:46;;;;;;;8.80;7.97;;;-1.40;99.90;;;;;;5038853;28;20192;-75
2022/01/07 00:35:14;;;;;;;10.77;7.57;;;-1.40;99.90;;;;;;5025811;28;20280;-72
2022/01/07 00:37:40;;;;;;;7.93;7.17;;;-1.20;99.90;;;;;;5029680;28;20659;-74
2022/01/07 00:40:11;;;;;;;16.20;8.40;;;-1.10;99.90;;;;;;5023046;28;20706;-74
2022/01/07 00:42:37;;;;;;;8.50;7.60;;;-1.10;99.90;;;;;;5019601;28;20248;-74
2022/01/07 00:45:04;;;;;;;13.43;8.67;;;-1.20;99.90;;;;;;5024828;28;20576;-73
2022/01/07 00:47:30;;;;;;;12.17;8.40;;;-1.20;99.90;;;;;;5030981;28;20602;-74
2022/01/07 00:49:56;;;;;;;19.30;8.17;;;-1.00;99.90;;;;;;5024759;28;20265;-71
2022/01/07 00:52:21;;;;;;;12.87;7.80;;;-1.00;99.90;;;;;;5025251;28;20200;-71
2022/01/07 00:54:47;;;;;;;20.93;9.10;;;-1.00;99.90;;;;;;5023802;28;20176;-71
2022/01/07 00:57:12;;;;;;;9.27;7.60;;;-1.10;99.90;;;;;;5030515;28;20246;-71
2022/01/07 00:59:39;;;;;;;15.30;8.53;;;-1.10;99.90;;;;;;5024909;28;20192;-71
2022/01/07 01:02:05;;;;;;;34.97;9.77;;;-1.10;99.90;;;;;;5020348;28;20216;-71
2022/01/07 01:04:31;;;;;;;9.33;8.20;;;-1.10;99.90;;;;;;5030040;28;20203;-71
2022/01/07 01:06:57;;;;;;;14.77;9.07;;;-1.10;99.90;;;;;;5028379;28;20184;-70
2022/01/07 01:09:22;;;;;;;11.57;8.13;;;-1.00;99.90;;;;;;5027331;28;20180;-71
2022/01/07 01:11:48;;;;;;;10.67;8.67;;;-0.90;99.90;;;;;;5020644;28;20205;-71
2022/01/07 01:14:14;;;;;;;12.60;8.97;;;-0.90;99.90;;;;;;5023502;28;20200;-71
2022/01/07 01:16:39;;;;;;;16.43;9.57;;;-0.90;99.90;;;;;;5036012;28;20557;-71
2022/01/07 01:19:06;;;;;;;10.73;8.03;;;-0.90;99.90;;;;;;5031052;28;20181;-71
2022/01/07 01:21:34;;;;;;;10.70;8.40;;;-0.90;99.90;;;;;;5025418;28;20735;-71
2022/01/07 01:24:00;;;;;;;10.17;8.87;;;-0.90;99.90;;;;;;5024986;28;20603;-71
2022/01/07 01:26:25;;;;;;;9.23;8.23;;;-0.80;99.90;;;;;;5036225;28;20255;-71
2022/01/07 01:28:51;;;;;;;14.43;9.63;;;-0.80;99.90;;;;;;5028533;28;20176;-71
2022/01/07 01:31:18;;;;;;;13.07;8.27;;;-0.80;99.90;;;;;;5026462;28;20196;-71
2022/01/07 01:33:45;;;;;;;10.30;8.77;;;-0.80;99.90;;;;;;5026891;28;20264;-71
2022/01/07 01:36:11;;;;;;;12.67;9.23;;;-0.70;99.90;;;;;;5026891;28;20223;-72
2022/01/07 01:38:38;;;;;;;13.17;9.63;;;-0.70;99.90;;;;;;5026889;28;20558;-71
2022/01/07 01:41:05;;;;;;;10.77;8.27;;;-0.90;99.90;;;;;;5022425;28;20680;-70
2022/01/07 01:43:31;;;;;;;9.70;8.70;;;-0.90;99.90;;;;;;5028390;28;20506;-71
2022/01/07 01:45:57;;;;;;;11.23;10.07;;;-0.90;99.90;;;;;;5032618;28;20208;-71
2022/01/07 01:48:23;;;;;;;13.00;9.00;;;-0.90;99.90;;;;;;5028117;28;20184;-71
2022/01/07 01:50:50;;;;;;;13.37;9.53;;;-0.90;99.90;;;;;;5022067;28;20169;-71
2022/01/07 01:53:16;;;;;;;14.03;10.17;;;-0.80;99.90;;;;;;5029645;28;20192;-71
2022/01/07 01:55:42;;;;;;;12.30;9.83;;;-0.70;99.90;;;;;;5028134;28;20180;-71
2022/01/07 01:58:08;;;;;;;13.27;10.23;;;-0.70;99.90;;;;;;5028958;28;20641;-71
2022/01/07 02:00:34;;;;;;;14.77;10.03;;;-0.70;99.90;;;;;;5021218;28;20208;-71
2022/01/07 02:03:00;;;;;;;17.23;9.50;;;-0.70;99.90;;;;;;5027286;28;20209;-71
2022/01/07 02:05:26;;;;;;;12.17;8.77;;;-0.80;99.90;;;;;;5030751;28;20180;-71
2022/01/07 02:07:53;;;;;;;9.10;8.20;;;-0.70;99.90;;;;;;5058275;28;20176;-71
2022/01/07 02:10:19;;;;;;;9.60;8.33;;;-0.60;99.90;;;;;;5022094;28;20264;-71
2022/01/07 02:12:46;;;;;;;13.37;8.63;;;-0.70;99.90;;;;;;5025198;28;20200;-71
2022/01/07 02:15:14;;;;;;;11.87;8.67;;;-0.80;99.90;;;;;;5028061;28;20188;-71
2022/01/07 02:17:42;;;;;;;10.57;9.47;;;-0.60;99.90;;;;;;5029947;28;20185;-71
2022/01/07 02:20:08;;;;;;;13.50;9.23;;;-0.60;99.90;;;;;;5030752;28;20194;-72
2022/01/07 02:22:34;;;;;;;9.63;7.90;;;-0.60;99.90;;;;;;5026856;28;20212;-71
2022/01/07 02:24:59;;;;;;;10.40;8.17;;;-0.50;99.90;;;;;;5023021;28;20212;-71
2022/01/07 02:27:25;;;;;;;13.87;8.27;;;-0.40;99.90;;;;;;5032874;28;20530;-71
2022/01/07 02:29:51;;;;;;;13.23;9.07;;;-0.40;99.90;;;;;;5029188;28;20643;-71
2022/01/07 02:32:18;;;;;;;12.33;9.70;;;-0.50;99.90;;;;;;5022131;28;20563;-71
2022/01/07 02:34:47;;;;;;;12.20;8.50;;;-0.60;99.90;;;;;;5026156;28;20176;-71
2022/01/07 02:37:13;;;;;;;11.07;8.43;;;-0.60;99.90;;;;;;5029296;28;20176;-70
2022/01/07 02:39:39;;;;;;;14.30;9.17;;;-0.60;99.90;;;;;;5026901;28;20875;-71
2022/01/07 02:42:05;;;;;;;13.67;9.43;;;-0.50;99.90;;;;;;5021781;28;20201;-70
2022/01/07 02:44:31;;;;;;;11.83;9.87;;;-0.60;99.90;;;;;;5027127;28;20262;-71
2022/01/07 02:46:57;;;;;;;11.33;9.17;;;-0.60;99.90;;;;;;5027563;28;20544;-71
2022/01/07 02:49:23;;;;;;;11.17;8.80;;;-0.50;99.90;;;;;;5032428;28;20177;-71
2022/01/07 02:51:48;;;;;;;10.77;8.57;;;-0.60;99.90;;;;;;5022380;28;20201;-72
2022/01/07 02:54:14;;;;;;;11.17;9.20;;;-0.60;99.90;;;;;;5024960;28;20546;-71
2022/01/07 02:56:40;;;;;;;13.80;9.87;;;-0.50;99.90;;;;;;5028063;28;20203;-71
2022/01/07 02:59:08;;;;;;;13.97;9.47;;;-0.50;99.90;;;;;;5031864;28;20270;-70
2022/01/07 03:01:35;;;;;;;15.33;11.03;;;-0.60;99.90;;;;;;5019790;28;20257;-71
2022/01/07 03:04:01;;;;;;;13.80;10.10;;;-0.60;99.90;;;;;;5026409;28;20200;-71
2022/01/07 03:06:27;;;;;;;14.67;10.13;;;-0.60;99.90;;;;;;5032390;28;20597;-71
2022/01/07 03:08:53;;;;;;;13.77;10.23;;;-0.50;99.90;;;;;;5022832;28;20185;-70
2022/01/07 03:11:19;;;;;;;13.90;10.20;;;-0.40;99.90;;;;;;5024556;28;20235;-71
2022/01/07 03:13:46;;;;;;;13.07;10.10;;;-0.50;99.90;;;;;;5026609;28;20193;-71
2022/01/07 03:16:12;;;;;;;14.67;10.47;;;-0.50;99.90;;;;;;5026858;28;20192;-71
2022/01/07 03:18:38;;;;;;;17.67;11.00;;;-0.50;99.90;;;;;;5026986;28;20177;-72
2022/01/07 03:21:04;;;;;;;15.10;10.30;;;-0.60;99.90;;;;;;5025814;28;20276;-72
2022/01/07 03:23:30;;;;;;;16.47;10.10;;;-0.60;99.90;;;;;;5024217;28;20646;-71
2022/01/07 03:25:56;;;;;;;21.93;12.60;;;-0.60;99.90;;;;;;5020888;28;20192;-71
2022/01/07 03:28:22;;;;;;;15.80;11.37;;;-0.60;99.90;;;;;;5025663;28;20555;-71
2022/01/07 03:30:48;;;;;;;20.20;11.93;;;-0.50;99.90;;;;;;5026302;28;20176;-72
2022/01/07 03:33:14;;;;;;;13.77;10.03;;;-0.60;99.90;;;;;;5027202;28;20239;-71
2022/01/07 03:35:40;;;;;;;14.57;10.47;;;-0.50;99.90;;;;;;5022205;28;20183;-71
2022/01/07 03:38:06;;;;;;;16.87;10.77;;;-0.30;99.90;;;;;;5025605;28;20715;-71
2022/01/07 03:40:33;;;;;;;26.60;11.67;;;-0.30;99.90;;;;;;5028079;28;20180;-70
2022/01/07 03:42:59;;;;;;;17.63;11.90;;;-0.30;99.90;;;;;;5023958;28;20292;-70
2022/01/07 03:45:25;;;;;;;15.90;11.20;;;-0.30;99.90;;;;;;5021147;28;20259;-72
2022/01/07 03:47:51;;;;;;;18.23;12.80;;;-0.30;99.90;;;;;;5027992;28;20224;-73
2022/01/07 03:50:20;;;;;;;16.93;11.93;;;-0.30;99.90;;;;;;5025907;28;20185;-73
2022/01/07 03:52:46;;;;;;;12.57;9.87;;;-0.30;99.90;;;;;;5021739;28;20201;-74
2022/01/07 03:55:16;;;;;;;15.97;11.00;;;-0.20;99.90;;;;;;5031613;28;20184;-74
2022/01/07 03:57:41;;;;;;;22.57;12.47;;;-0.20;99.90;;;;;;5036273;28;20176;-74
2022/01/07 04:00:11;;;;;;;13.30;11.27;;;-0.20;99.90;;;;;;5026603;28;20648;-74
2022/01/07 04:02:36;;;;;;;14.60;11.17;;;-0.20;99.90;;;;;;5024617;28;20196;-74
2022/01/07 04:05:02;;;;;;;13.73;11.20;;;-0.20;99.90;;;;;;5020625;28;20554;-73
2022/01/07 04:07:30;;;;;;;25.10;12.00;;;-0.20;99.90;;;;;;5027744;28;20243;-74
2022/01/07 04:09:58;;;;;;;15.93;11.67;;;-0.30;99.90;;;;;;5027533;28;20551;-74
2022/01/07 04:12:24;;;;;;;31.37;13.07;;;-0.40;99.90;;;;;;5028705;28;20706;-74
2022/01/07 04:14:57;;;;;;;15.77;12.43;;;-0.50;99.90;;;;;;5022451;28;20185;-72
2022/01/07 04:17:23;;;;;;;17.10;12.10;;;-0.50;99.90;;;;;;5027340;28;20196;-72
2022/01/07 04:19:48;;;;;;;17.10;12.00;;;-0.40;99.90;;;;;;5024466;28;20253;-72
2022/01/07 04:22:14;;;;;;;17.53;11.60;;;-0.30;99.90;;;;;;5017947;28;20196;-72
2022/01/07 04:24:39;;;;;;;17.40;11.60;;;-0.30;99.90;;;;;;5020170;28;20618;-72
2022/01/07 04:27:05;;;;;;;19.60;12.57;;;-0.30;99.90;;;;;;5020308;28;20184;-72
2022/01/07 04:29:31;;;;;;;16.10;11.53;;;-0.20;99.90;;;;;;5027692;28;20172;-72
2022/01/07 04:31:56;;;;;;;14.30;11.37;;;-0.10;99.90;;;;;;5019785;28;20292;-72
2022/01/07 04:34:22;;;;;;;15.37;12.73;;;0.00;99.90;;;;;;5032039;28;20282;-72
2022/01/07 04:36:47;;;;;;;19.47;13.10;;;-0.20;99.90;;;;;;5029478;28;20181;-72
2022/01/07 04:39:13;;;;;;;20.30;13.43;;;-0.30;99.90;;;;;;5023907;28;20208;-72
2022/01/07 04:41:39;;;;;;;18.07;12.40;;;-0.30;99.90;;;;;;5025589;28;20598;-72
2022/01/07 04:44:04;;;;;;;16.67;12.90;;;-0.30;99.90;;;;;;5025454;28;20202;-72
2022/01/07 04:46:30;;;;;;;20.07;13.50;;;-0.20;99.90;;;;;;5026167;28;20191;-72
2022/01/07 04:48:56;;;;;;;20.40;14.33;;;-0.20;99.90;;;;;;5022069;28;20177;-72
2022/01/07 04:51:21;;;;;;;20.87;12.73;;;-0.30;99.90;;;;;;5025575;28;20196;-72
2022/01/07 04:53:47;;;;;;;16.93;12.40;;;-0.30;99.90;;;;;;5028192;28;20210;-72
2022/01/07 04:56:12;;;;;;;21.07;14.67;;;-0.20;99.90;;;;;;5020415;28;20188;-72
2022/01/07 04:58:38;;;;;;;19.90;13.07;;;-0.20;99.90;;;;;;5028857;28;20185;-72
2022/01/07 05:01:04;;;;;;;18.20;13.23;;;-0.20;99.90;;;;;;5025443;28;20197;-71
2022/01/07 05:03:29;;;;;;;17.60;11.87;;;-0.20;99.90;;;;;;5025727;28;20280;-72
2022/01/07 05:06:10;;;;;;;17.63;11.87;;;-0.10;99.90;;;;;;5024745;28;20559;-72
2022/01/07 05:08:36;;;;;;;17.33;12.83;;;0.00;99.90;;;;;;5025756;28;20228;-72
2022/01/07 05:11:01;;;;;;;17.47;11.40;;;0.10;99.90;;;;;;5025846;28;20181;-72
2022/01/07 05:13:27;;;;;;;18.17;12.03;;;0.00;99.90;;;;;;5027201;28;20191;-72
2022/01/07 05:15:53;;;;;;;13.27;11.43;;;0.00;99.90;;;;;;5023073;28;20653;-72
2022/01/07 05:18:18;;;;;;;14.20;11.20;;;0.00;99.90;;;;;;5029173;28;20177;-71
2022/01/07 05:20:46;;;;;;;13.73;9.53;;;0.00;99.90;;;;;;5025176;28;20566;-71
2022/01/07 05:23:12;;;;;;;11.80;9.47;;;0.00;99.90;;;;;;5027311;28;20203;-71
2022/01/07 05:25:38;;;;;;;12.90;10.50;;;0.10;99.90;;;;;;5029805;28;20185;-71
2022/01/07 05:28:05;;;;;;;13.00;10.10;;;0.10;99.90;;;;;;5032126;28;20271;-71
2022/01/07 05:30:31;;;;;;;12.60;9.43;;;0.00;99.90;;;;;;5028991;28;20271;-71
2022/01/07 05:32:56;;;;;;;12.60;10.17;;;-0.10;99.90;;;;;;5029620;28;20731;-71
2022/01/07 05:35:25;;;;;;;11.67;9.70;;;0.00;99.90;;;;;;5032150;28;20193;-71
2022/01/07 05:37:52;;;;;;;13.13;11.30;;;0.00;99.90;;;;;;5032957;28;20180;-71
2022/01/07 05:40:18;;;;;;;12.60;11.13;;;-0.10;99.90;;;;;;5030621;28;20603;-71
2022/01/07 05:42:43;;;;;;;13.07;10.57;;;-0.20;99.90;;;;;;5019165;28;20486;-71
2022/01/07 05:45:09;;;;;;;12.90;10.33;;;-0.20;99.90;;;;;;5030321;28;20216;-71
2022/01/07 05:47:35;;;;;;;12.80;10.90;;;-0.30;99.90;;;;;;5030647;28;20184;-71
2022/01/07 05:50:00;;;;;;;12.30;10.53;;;-0.30;99.90;;;;;;5032447;28;20220;-71
2022/01/07 05:52:26;;;;;;;11.80;10.07;;;-0.30;99.90;;;;;;5025217;28;20204;-71
2022/01/07 05:54:52;;;;;;;11.43;9.67;;;-0.40;99.90;;;;;;5031167;28;20283;-71
2022/01/07 05:57:17;;;;;;;15.23;11.33;;;-0.30;99.90;;;;;;5024435;28;20250;-71
2022/01/07 05:59:43;;;;;;;13.27;11.63;;;-0.30;99.90;;;;;;5026579;28;20203;-71
2022/01/07 06:02:08;;;;;;;11.30;10.07;;;-0.40;99.90;;;;;;5032831;28;20244;-70
2022/01/07 06:04:34;;;;;;;14.83;11.30;;;-0.40;99.90;;;;;;5028121;28;20211;-71
2022/01/07 06:07:00;;;;;;;15.80;11.53;;;-0.40;99.90;;;;;;5030232;28;20187;-71
2022/01/07 06:09:26;;;;;;;14.50;11.10;;;-0.50;99.90;;;;;;5028294;28;20630;-71
2022/01/07 06:11:52;;;;;;;12.43;10.87;;;-0.50;99.90;;;;;;5033971;28;20196;-71
2022/01/07 06:14:18;;;;;;;12.63;10.10;;;-0.50;99.90;;;;;;5026009;28;20181;-74
2022/01/07 06:16:43;;;;;;;13.43;10.23;;;-0.40;99.90;;;;;;5029109;28;20189;-73
2022/01/07 06:19:09;;;;;;;12.43;10.90;;;-0.40;99.90;;;;;;5025428;28;20718;-73
2022/01/07 06:21:35;;;;;;;13.93;10.83;;;-0.30;99.90;;;;;;5032705;28;20208;-73
2022/01/07 06:24:00;;;;;;;13.57;10.77;;;-0.30;99.90;;;;;;5028158;28;20684;-73
2022/01/07 06:26:26;;;;;;;14.37;11.77;;;-0.30;99.90;;;;;;5034197;28;20258;-73
2022/01/07 06:28:52;;;;;;;14.87;11.70;;;-0.40;99.90;;;;;;5032071;28;20570;-73
2022/01/07 06:31:18;;;;;;;16.20;11.73;;;-0.40;99.90;;;;;;5030136;28;20232;-73
2022/01/07 06:33:44;;;;;;;14.13;11.37;;;-0.50;99.90;;;;;;5027562;28;20666;-73
2022/01/07 06:36:09;;;;;;;12.67;10.73;;;-0.50;99.90;;;;;;5032679;28;20181;-74
2022/01/07 06:38:35;;;;;;;16.03;11.47;;;-0.40;99.90;;;;;;5022680;28;20565;-74
2022/01/07 06:41:01;;;;;;;16.60;11.33;;;-0.40;99.90;;;;;;5027402;28;20196;-72
2022/01/07 06:43:27;;;;;;;12.87;10.97;;;-0.50;99.90;;;;;;5030597;28;20216;-74
2022/01/07 06:45:52;;;;;;;13.00;10.23;;;-0.40;99.90;;;;;;5029467;28;20192;-73
2022/01/07 06:48:18;;;;;;;14.03;10.67;;;-0.30;99.90;;;;;;5033086;28;20189;-73
2022/01/07 06:50:44;;;;;;;17.00;12.87;;;-0.30;99.90;;;;;;5031746;28;20181;-73
2022/01/07 06:53:10;;;;;;;16.70;12.83;;;-0.40;99.90;;;;;;5030767;28;20208;-73
2022/01/07 06:55:36;;;;;;;16.83;12.57;;;-0.40;99.90;;;;;;5032454;28;20187;-73
2022/01/07 06:58:02;;;;;;;16.80;13.30;;;-0.30;99.90;;;;;;5030744;28;20192;-74
2022/01/07 07:00:28;;;;;;;16.43;13.00;;;0.00;99.90;;;;;;5025856;28;20451;-73
2022/01/07 07:02:53;;;;;;;14.83;12.83;;;0.10;99.90;;;;;;5030929;28;20208;-72
2022/01/07 07:05:20;;;;;;;17.60;13.57;;;0.20;99.90;;;;;;5031494;28;20603;-73
2022/01/07 07:07:45;;;;;;;14.40;12.87;;;0.20;99.90;;;;;;5027192;28;20653;-73
2022/01/07 07:10:11;;;;;;;15.67;12.93;;;0.20;99.90;;;;;;5035298;28;20181;-72
2022/01/07 07:12:37;;;;;;;16.63;12.27;;;0.20;99.90;;;;;;5032313;28;20750;-73
2022/01/07 07:15:03;;;;;;;14.37;10.23;;;0.20;99.90;;;;;;5025744;28;20200;-73
2022/01/07 07:17:29;;;;;;;14.10;12.03;;;0.30;99.90;;;;;;5028600;28;20231;-72
2022/01/07 07:19:54;;;;;;;13.23;10.80;;;0.30;99.90;;;;;;5024639;28;20270;-72
2022/01/07 07:22:20;;;;;;;16.30;11.67;;;0.40;99.90;;;;;;5032254;28;20705;-72
2022/01/07 07:24:45;;;;;;;12.70;10.93;;;0.40;99.90;;;;;;5026831;28;20220;-71
2022/01/07 07:27:11;;;;;;;11.50;9.83;;;0.30;99.90;;;;;;5026499;28;20195;-71
2022/01/07 07:29:37;;;;;;;14.43;11.90;;;0.20;99.90;;;;;;5023478;28;20243;-71
2022/01/07 07:32:07;;;;;;;12.27;10.80;;;0.20;99.90;;;;;;5030524;28;20205;-71
2022/01/07 07:37:04;;;;;;;14.03;10.97;;;0.20;99.90;;;;;;5026180;28;20185;-71
2022/01/07 07:39:30;;;;;;;13.83;11.47;;;0.10;99.90;;;;;;5026658;28;20216;-72
2022/01/07 07:41:56;;;;;;;11.93;10.77;;;0.00;99.90;;;;;;5027210;28;20247;-72
2022/01/07 07:44:22;;;;;;;14.70;11.13;;;-0.10;99.90;;;;;;5028561;28;20218;-71
2022/01/07 07:46:47;;;;;;;15.73;10.90;;;-0.10;99.90;;;;;;5024764;28;20184;-71
2022/01/07 07:49:14;;;;;;;13.70;12.23;;;-0.20;99.90;;;;;;5025816;28;20180;-72
2022/01/07 07:51:39;;;;;;;12.70;10.53;;;-0.10;99.90;;;;;;5021669;28;20212;-72
2022/01/07 07:54:06;;;;;;;14.93;11.23;;;-0.10;99.90;;;;;;5029882;28;20184;-72
2022/01/07 07:56:32;;;;;;;12.27;10.27;;;-0.10;99.90;;;;;;5030025;28;20181;-71
2022/01/07 07:58:58;;;;;;;14.73;10.73;;;-0.10;99.90;;;;;;5025004;28;20266;-71
2022/01/07 08:01:24;;;;;;;14.10;11.50;;;0.00;99.90;;;;;;5024364;28;20358;-71
2022/01/07 08:03:50;;;;;;;13.80;11.63;;;0.00;99.90;;;;;;5024743;28;20227;-71
2022/01/07 08:06:16;;;;;;;14.30;11.07;;;0.00;99.90;;;;;;5024679;28;20263;-71
2022/01/07 08:08:41;;;;;;;14.30;11.00;;;0.10;99.90;;;;;;5025187;28;20272;-70
2022/01/07 08:11:10;;;;;;;12.33;10.93;;;0.10;99.90;;;;;;5026534;28;20213;-69
2022/01/07 08:16:23;;;;;;;14.07;11.07;;;0.30;99.90;;;;;;5029490;28;20195;-70
2022/01/07 08:18:50;;;;;;;13.07;11.33;;;0.20;99.90;;;;;;5018066;28;20182;-69
2022/01/07 08:21:17;;;;;;;13.97;11.63;;;0.20;99.90;;;;;;5024472;28;20239;-70
2022/01/07 08:23:44;;;;;;;14.07;10.37;;;0.30;99.90;;;;;;5026759;28;20295;-69
2022/01/07 08:26:11;;;;;;;13.83;11.00;;;0.40;99.90;;;;;;5029502;28;20184;-70
2022/01/07 08:28:48;;;;;;;11.50;10.40;;;0.30;99.90;;;;;;5025995;28;20276;-69
2022/01/07 08:34:52;;;;;;;13.10;10.50;;;0.50;99.90;;;;;;5026425;28;20279;-69
2022/01/07 08:36:53;;;;;;;10.67;9.10;;;0.90;99.90;;;;;;5031262;28;20218;-70
2022/01/07 08:39:19;;;;;;;12.73;10.63;;;1.20;99.90;;;;;;5016856;28;20184;-70
2022/01/07 08:41:45;;;;;;;12.17;10.37;;;1.30;99.90;;;;;;5023162;28;20671;-71
2022/01/07 08:44:11;;;;;;;11.17;10.03;;;1.30;99.90;;;;;;5029920;28;20208;-68
2022/01/07 08:46:38;;;;;;;10.93;9.67;;;1.20;99.90;;;;;;5027761;28;20246;-69
2022/01/07 08:49:05;;;;;;;11.90;9.63;;;1.10;99.90;;;;;;5030702;28;20185;-69
2022/01/07 08:51:32;;;;;;;12.93;10.30;;;1.20;99.90;;;;;;5027070;28;20209;-68
2022/01/07 08:53:58;;;;;;;12.43;10.20;;;1.40;99.90;;;;;;5027562;28;20215;-70
2022/01/07 08:56:24;;;;;;;10.80;9.70;;;1.30;99.90;;;;;;5018440;28;20195;-69
2022/01/07 08:58:51;;;;;;;10.17;9.17;;;1.30;99.90;;;;;;5023634;28;20196;-69
2022/01/07 09:01:18;;;;;;;12.70;9.43;;;1.20;99.90;;;;;;5022530;28;20299;-70
2022/01/07 09:03:43;;;;;;;10.87;9.77;;;1.20;99.90;;;;;;5023996;28;20196;-70
2022/01/07 09:06:09;;;;;;;10.33;9.20;;;1.30;99.90;;;;;;5027458;28;20180;-70
2022/01/07 09:08:34;;;;;;;10.80;9.70;;;1.30;99.90;;;;;;5029429;28;20648;-70
2022/01/07 09:11:00;;;;;;;10.63;9.07;;;1.60;99.90;;;;;;5020853;28;20185;-70
2022/01/07 09:13:26;;;;;;;10.47;9.37;;;1.90;99.90;;;;;;5018459;28;20182;-69
2022/01/07 09:15:52;;;;;;;10.37;9.27;;;2.10;99.90;;;;;;5051228;28;20192;-71
2022/01/07 09:18:18;;;;;;;9.23;8.40;;;2.30;99.90;;;;;;5018483;28;20176;-68
2022/01/07 09:20:45;;;;;;;10.43;9.20;;;2.30;99.90;;;;;;5020956;28;20204;-69
2022/01/07 09:23:11;;;;;;;11.27;8.47;;;2.30;99.90;;;;;;5020886;28;20248;-69
2022/01/07 09:25:37;;;;;;;9.47;8.57;;;2.10;99.90;;;;;;5018246;28;20616;-70
2022/01/07 09:28:05;;;;;;;9.57;8.50;;;1.90;99.90;;;;;;5020160;28;20182;-70
2022/01/07 09:30:30;;;;;;;9.60;8.60;;;1.70;99.90;;;;;;5017278;28;20675;-71
2022/01/07 09:32:57;;;;;;;8.60;7.83;;;1.80;99.90;;;;;;5019942;28;20288;-71
2022/01/07 09:35:23;;;;;;;9.23;7.50;;;1.90;99.90;;;;;;5030264;28;20246;-71
2022/01/07 09:37:50;;;;;;;9.77;8.87;;;1.90;99.90;;;;;;5026863;28;20185;-70
2022/01/07 09:40:17;;;;;;;9.80;8.90;;;1.80;99.90;;;;;;5028887;28;20204;-72
2022/01/07 09:43:02;;;;;;;9.20;8.40;;;1.80;99.90;;;;;;5027708;28;20699;-73
2022/01/07 09:45:29;;;;;;;9.40;8.50;;;1.60;99.90;;;;;;5029151;28;20215;-70
2022/01/07 09:47:56;;;;;;;8.93;8.03;;;1.70;99.90;;;;;;5023269;28;20192;-70
2022/01/07 09:50:23;;;;;;;8.00;7.20;;;1.80;99.90;;;;;;5027882;28;20219;-71
2022/01/07 09:52:49;;;;;;;9.67;8.60;;;1.80;99.90;;;;;;5023039;28;20193;-72
2022/01/07 09:55:15;;;;;;;11.37;8.27;;;1.70;99.90;;;;;;5026497;28;20241;-72
2022/01/07 09:57:41;;;;;;;12.20;8.63;;;1.60;99.90;;;;;;5023839;28;20256;-72
2022/01/07 10:00:08;;;;;;;7.13;6.43;;;1.50;99.90;;;;;;5026813;28;20790;-73
2022/01/07 10:02:34;;;;;;;11.30;8.97;;;1.60;99.90;;;;;;5026021;28;20201;-70
2022/01/07 10:05:16;;;;;;;8.30;7.50;;;1.50;99.90;;;;;;5023124;28;20232;-71
2022/01/07 10:07:43;;;;;;;8.03;7.20;;;1.70;99.90;;;;;;5025510;28;20536;-71
2022/01/07 10:10:14;;;;;;;8.63;7.83;;;2.00;99.90;;;;;;5026662;28;20185;-73
2022/01/07 10:13:02;;;;;;;7.53;6.63;;;2.00;99.90;;;;;;5024503;28;20204;-70
2022/01/07 10:15:39;;;;;;;8.13;7.33;;;2.20;99.90;;;;;;5028240;28;20243;-70
2022/01/07 10:18:10;;;;;;;9.07;7.83;;;2.40;99.90;;;;;;5023382;28;20192;-70
2022/01/07 10:20:42;;;;;;;7.67;6.67;;;3.00;99.90;;;;;;5026648;28;20271;-71
2022/01/07 10:23:23;;;;;;;7.60;6.83;;;3.50;99.90;;;;;;5023213;28;20213;-72
2022/01/07 10:25:53;;;;;;;7.53;6.73;;;3.70;99.90;;;;;;5021456;28;20250;-71
2022/01/07 10:28:21;;;;;;;9.13;7.17;;;3.70;99.90;;;;;;5031253;28;20261;-70
2022/01/07 10:30:59;;;;;;;7.90;7.10;;;3.50;99.90;;;;;;5026602;28;20260;-71
2022/01/07 10:33:39;;;;;;;6.87;6.27;;;3.30;99.90;;;;;;5027573;28;20175;-70
2022/01/07 10:36:08;;;;;;;9.07;7.50;;;3.10;99.90;;;;;;5021758;28;20256;-71
2022/01/07 10:38:57;;;;;;;8.00;7.30;;;2.80;99.90;;;;;;5018732;28;20181;-71
2022/01/07 10:41:23;;;;;;;7.80;7.00;;;2.60;99.90;;;;;;5025413;28;20691;-71
2022/01/07 10:43:50;;;;;;;7.80;7.03;;;2.50;99.90;;;;;;5027114;28;20232;-71
2022/01/07 10:46:25;;;;;;;8.03;7.23;;;2.40;99.90;;;;;;5025393;28;20181;-74
2022/01/07 10:48:57;;;;;;;9.90;7.47;;;2.20;99.90;;;;;;5027782;28;20247;-73
2022/01/07 10:51:26;;;;;;;8.37;7.63;;;2.20;99.90;;;;;;5029918;28;20193;-71
2022/01/07 10:53:55;;;;;;;7.90;7.20;;;2.30;99.90;;;;;;5026802;28;20188;-74
2022/01/07 10:56:24;;;;;;;8.53;7.30;;;2.50;99.90;;;;;;5020511;28;20192;-71
2022/01/07 10:58:55;;;;;;;7.80;7.10;;;2.40;99.90;;;;;;5023366;28;20188;-71
2022/01/07 11:01:20;;;;;;;8.60;7.80;;;2.30;99.90;;;;;;5029520;28;20731;-73
2022/01/07 11:03:51;;;;;;;8.00;6.87;;;2.40;99.90;;;;;;5029720;28;20236;-73
2022/01/07 11:06:18;;;;;;;8.63;7.10;;;2.70;99.90;;;;;;5026351;28;20187;-73
2022/01/07 11:08:43;;;;;;;9.30;8.00;;;2.90;99.90;;;;;;5025065;28;20185;-72
2022/01/07 11:11:10;;;;;;;7.97;7.27;;;2.90;99.90;;;;;;5028052;28;20238;-72
2022/01/07 11:13:37;;;;;;;8.40;7.60;;;2.80;99.90;;;;;;5026371;28;20265;-73
2022/01/07 11:16:03;;;;;;;9.20;8.27;;;2.80;99.90;;;;;;5024324;28;20188;-72
2022/01/07 11:18:29;;;;;;;7.50;6.63;;;2.70;99.90;;;;;;5028873;28;20172;-72
2022/01/07 11:20:58;;;;;;;6.33;5.73;;;2.50;99.90;;;;;;5031920;28;20207;-70
2022/01/07 11:23:27;;;;;;;9.70;7.30;;;2.30;99.90;;;;;;5028175;28;20179;-73
2022/01/07 11:26:02;;;;;;;6.07;5.07;;;2.40;99.90;;;;;;5024560;28;20225;-72
2022/01/07 11:28:29;;;;;;;10.20;8.10;;;2.30;99.90;;;;;;5015960;28;20578;-70
2022/01/07 11:31:04;;;;;;;10.03;8.13;;;2.30;99.90;;;;;;5013902;28;20177;-70
2022/01/07 11:33:31;;;;;;;9.63;6.60;;;2.20;99.90;;;;;;5018054;28;20188;-71
2022/01/07 11:35:58;;;;;;;9.40;8.50;;;2.30;99.90;;;;;;5024067;28;20268;-71
2022/01/07 11:38:46;;;;;;;8.73;6.87;;;2.20;99.90;;;;;;5021150;28;20190;-74
2022/01/07 11:41:15;;;;;;;10.20;8.50;;;2.10;99.90;;;;;;5025457;28;20181;-71
2022/01/07 11:43:43;;;;;;;10.17;7.60;;;1.90;99.90;;;;;;5031620;28;20219;-73
2022/01/07 11:46:29;;;;;;;11.37;8.60;;;1.50;99.90;;;;;;5022330;28;20523;-72
2022/01/07 11:48:57;;;;;;;9.30;8.40;;;1.50;99.90;;;;;;5043508;28;20276;-71
2022/01/07 11:51:23;;;;;;;12.83;10.00;;;1.50;99.90;;;;;;5030474;28;20296;-73
2022/01/07 11:53:49;;;;;;;11.63;10.43;;;1.50;99.90;;;;;;5021175;28;20269;-73
2022/01/07 11:56:16;;;;;;;11.60;7.93;;;1.50;99.90;;;;;;5022501;28;20184;-73
2022/01/07 11:59:20;;;;;;;12.23;10.63;;;1.50;99.90;;;;;;5025195;28;20181;-74
2022/01/07 12:01:56;;;;;;;13.00;10.33;;;1.50;99.90;;;;;;5030533;28;20200;-76
2022/01/07 12:04:34;;;;;;;13.00;10.43;;;1.40;99.90;;;;;;5018619;28;20195;-77
2022/01/07 12:07:02;;;;;;;12.50;10.67;;;1.30;99.90;;;;;;5021669;28;20395;-75
2022/01/07 12:09:31;;;;;;;10.93;8.17;;;1.10;99.90;;;;;;5028310;28;20171;-74
2022/01/07 12:12:10;;;;;;;12.60;10.20;;;0.90;99.90;;;;;;5023452;28;20254;-73
2022/01/07 12:15:04;;;;;;;11.60;10.17;;;0.90;99.90;;;;;;5018936;28;20185;-73
2022/01/07 12:17:31;;;;;;;11.93;9.93;;;1.00;99.90;;;;;;5031817;28;20218;-73
2022/01/07 12:20:22;;;;;;;8.60;7.23;;;1.00;99.90;;;;;;5031794;28;20184;-73
2022/01/07 12:22:51;;;;;;;9.60;8.67;;;1.20;99.90;;;;;;5027075;28;20207;-73
2022/01/07 12:25:17;;;;;;;9.37;8.37;;;1.40;99.90;;;;;;5034245;28;20223;-73
2022/01/07 12:27:43;;;;;;;12.17;10.93;;;1.20;99.90;;;;;;5030880;28;20565;-74
2022/01/07 12:30:10;;;;;;;10.03;9.03;;;1.00;99.90;;;;;;5030937;28;20597;-74
2022/01/07 12:32:37;;;;;;;12.20;10.20;;;1.00;99.90;;;;;;5030881;28;20201;-74
2022/01/07 12:35:09;;;;;;;11.73;8.97;;;1.00;99.90;;;;;;5027782;28;20637;-74
2022/01/07 12:37:36;;;;;;;11.83;10.07;;;0.90;99.90;;;;;;5028352;28;20180;-74
2022/01/07 12:40:05;;;;;;;9.77;8.77;;;0.70;99.90;;;;;;5027056;28;20708;-74
2022/01/07 12:42:38;;;;;;;13.30;11.27;;;0.80;99.90;;;;;;5025103;28;20200;-74
2022/01/07 12:45:04;;;;;;;12.07;10.87;;;0.60;99.90;;;;;;5033387;28;20207;-74
2022/01/07 12:47:31;;;;;;;14.07;11.53;;;0.60;99.90;;;;;;5030190;28;20181;-72